• Join FlightAware (Why Join?)
  • Login
  • US Flag 
08:08PM EDT


 

Airport Tracker/Info


-or-


 

Live Flight TrackerFlight Track Log ✈ SWA920 ✈ 03-May-2013 ✈ KMDW - KBNA

Flight Track Log - Related Links

Times and Time Zones

All times are in EDT time to prevent confusion due to time zone crossing. See the SWA920 flight status page for this flight to view local times or setup timezone preferences in your user account.

Time Position Orientation Groundspeed Altitude Reporting Facility
EDT Latitude Longitude Course Direction KTS MPH feet Rate Location/Type
04:02PM 41.8333 -87.7833 143° Southeast 209 241 2,600  Level Chicago TRACON
04:04PM 41.7497 -87.6994 143° Southeast 235 270 4,400 1,140 Climbing Chicago Center
04:05PM 41.6850 -87.7342 202° Southwest 247 284 6,700 2,820 Climbing Chicago Center
04:06PM 41.6056 -87.7769 202° Southwest 255 293 10,300 2,880 Climbing Chicago Center
04:08PM 41.5319 -87.8147 201° Southwest 278 320 12,700 2,400 Climbing Chicago Center
04:09PM 41.4364 -87.8272 186° South 344 396 15,300 2,820 Climbing Chicago Center
04:10PM 41.3386 -87.8258 179° South 347 399 18,600 2,700 Climbing Chicago Center
04:11PM 41.2381 -87.8236 179° South 355 409 20,900 2,160 Climbing Chicago Center
04:12PM 41.1286 -87.8211 179° South 385 443 23,100 2,100 Climbing Chicago Center
04:13PM 41.0164 -87.8194 179° South 399 459 25,300 2,220 Climbing Chicago Center
04:14PM 40.8811 -87.7989 173° South 407 468 27,800 2,220 Climbing Chicago Center
04:15PM 40.7689 -87.7800 173° South 408 470 30,000 1,500 Climbing Chicago Center
04:16PM 40.6564 -87.7614 173° South 408 470 31,000 1,440 Climbing Chicago Center
04:17PM 40.5444 -87.7433 173° South 407 468 33,000 960 Climbing Chicago Center
04:18PM 40.4333 -87.7269 174° South 405 466 33,000  Level Chicago Center
04:18PM 40.3697 -87.7175 174° South 403 464 33,000  Level Indianapolis Center
04:19PM 40.2372 -87.6967 173° South 402 463 33,000  Level Indianapolis Center
04:20PM 40.1281 -87.6781 173° South 400 460 33,000  Level Indianapolis Center
04:22PM 40.0172 -87.6600 173° South 402 463 33,000  Level Indianapolis Center
04:23PM 39.9058 -87.6433 173° South 404 465 33,000  Level Indianapolis Center
04:24PM 39.7958 -87.6264 173° South 402 463 33,000  Level Indianapolis Center
04:25PM 39.6853 -87.6089 173° South 402 463 33,000  Level Indianapolis Center
04:26PM 39.5558 -87.5886 173° South 395 455 33,000  Level Indianapolis Center
04:27PM 39.4464 -87.5714 173° South 396 456 33,000  Level Indianapolis Center
04:28PM 39.3369 -87.5542 173° South 397 457 33,000  Level Indianapolis Center
04:29PM 39.2269 -87.5367 173° South 399 459 33,000  Level Indianapolis Center
04:30PM 39.1078 -87.5186 173° South 398 458 33,000  Level Indianapolis Center
04:31PM 38.9975 -87.5031 174° South 398 458 33,000  Level Indianapolis Center
04:32PM 38.8878 -87.4858 173° South 397 457 33,000  Level Indianapolis Center
04:33PM 38.7781 -87.4681 173° South 396 456 33,000 -300 Level Indianapolis Center
04:34PM 38.6683 -87.4525 174° South 396 456 32,400 -960 Descending Indianapolis Center
04:35PM 38.5411 -87.4331 173° South 386 444 31,100 -1,140 Descending Indianapolis Center
04:36PM 38.4358 -87.4175 173° South 382 440 30,100 -1,020 Descending Indianapolis Center
04:37PM 38.3322 -87.4008 173° South 378 435 29,100 -1,020 Descending Indianapolis Center
04:38PM 38.2297 -87.3861 174° South 375 432 28,100 -540 Descending Indianapolis Center
04:39PM 38.1253 -87.3706 173° South 379 436 28,000 -60 Descending Indianapolis Center
04:40PM 37.9992 -87.3506 173° South 382 440 28,000  Level Indianapolis Center
04:41PM 37.8936 -87.3347 173° South 381 438 28,000  Level Indianapolis Center
04:42PM 37.7875 -87.3192 173° South 383 441 28,000  Level Indianapolis Center
04:43PM 37.6881 -87.3033 173° South 383 441 28,000 -120 Level Indianapolis Center
04:44PM 37.6106 -87.2942 175° South 389 448 27,800 -1,260 Descending Memphis Center
04:45PM 37.5125 -87.2797 173° South 376 433 25,900 -1,920 Descending Memphis Center
04:46PM 37.4161 -87.2653 173° South 361 415 24,000 -1,500 Descending Memphis Center
04:47PM 37.3200 -87.2481 172° South 356 410 23,000 -7,500 Descending Memphis Center
04:48PM 37.2275 -87.2178 165° South 351 404 9,000 -900 Descending Memphis Center
04:48PM 37.1856 -87.2092 171° South 347 399 21,800 11,700 Climbing Memphis Center
04:49PM 37.1372 -87.1928 165° South 344 396 20,700 -1,980 Descending Memphis Center
04:49PM 37.0994 -87.1814 166° South 335 386 20,000 -1,800 Descending Memphis Center
04:50PM 37.0469 -87.1653 166° South 332 382 18,900 -1,620 Descending Memphis Center
04:50PM 37.0156 -87.1561 167° South 324 373 18,400 -1,800 Descending Memphis Center
04:51PM 36.9525 -87.1378 167° South 327 376 17,100 -1,980 Descending Memphis Center
04:51PM 36.9253 -87.1339 173° South 313 360 16,400 -1,740 Descending Memphis Center
04:52PM 36.8686 -87.1153 165° South 314 361 15,400 -1,620 Descending Memphis Center
04:53PM 36.7928 -87.0847 162° South 306 352 13,700 -1,680 Descending Memphis Center
04:54PM 36.7228 -87.0408 153° Southeast 289 333 12,100 -1,620 Descending Memphis Center
04:55PM 36.6550 -86.9997 154° Southeast 279 321 10,500 -1,200 Descending Memphis Center
04:56PM 36.5956 -86.9558 149° Southeast 263 303 9,800 -900 Descending Memphis Center
04:57PM 36.5442 -86.9114 145° Southeast 233 268 8,800 -1,200 Descending Memphis Center
04:58PM 36.4931 -86.8697 147° Southeast 227 261 7,500 -1,200 Descending Memphis Center
04:59PM 36.4461 -86.8306 146° Southeast 222 255 6,500 -1,080 Descending Memphis Center
05:00PM 36.3950 -86.7889 147° Southeast 217 250 5,400 -900 Descending Memphis Center
05:01PM 36.3436 -86.7472 147° Southeast 217 250 4,700 -780 Descending Memphis Center
05:02PM 36.2944 -86.7083 147° Southeast 212 244 3,900 -900 Descending Memphis Center
05:03PM 36.2497 -86.6742 148° Southeast 201 231 3,000 -780 Descending Memphis Center
05:04PM 36.2092 -86.6428 148° Southeast 181 208 2,400 -840 Descending Memphis Center
05:05PM 36.1717 -86.6444 182° South 147 169 1,400 -840 Descending Memphis Center
05:06PM 36.1450 -86.6558 199° South 138 159 800 3,780 Descending Memphis Center
05:07PM 36.1033 -86.6578 182° South 138 159 9,000 8,160 Climbing Memphis Center
05:09PM 36.1245 -86.6782 90° East  Level Estimated
05:16PM 36.1245 -86.6782 90° East  Level Estimated
05:17PM 36.1245 -86.6782 90° East  Level Estimated
05:18PM 36.1245 -86.6782 90° East  Level Estimated
05:19PM 36.1245 -86.6782 90° East  Level Estimated
05:20PM 36.1245 -86.6782 90° East  Level Estimated
05:21PM 36.1245 -86.6782 90° East  Level Estimated
05:22PM 36.1245 -86.6782 90° East  Level Estimated
05:23PM 36.1245 -86.6782 90° East  Level Estimated
05:24PM 36.1245 -86.6782 90° East  Level Estimated
05:25PM 36.1245 -86.6782 90° East  Level Estimated
05:26PM 36.1245 -86.6782 90° East  Level Estimated